SWR374P LSZH-LEAL
Flight info
| Callsign | SWR374P |
|---|---|
| Flight time | N/A |
| Altitude | 37000 |
| Route | VEBIT T50 ROTOS Z669 ULMES DCT VADAR DCT GEVEA DCT INCUS DCT BALSI DCT RETNO DCT TUPOX DCT MTG DCT DIVKO DCT VATIR DCT PIVUS DCT SULID DCT SISMO DCT AKAMU DCT ADX DCT OKITI DCT IBEBA M603 GERVU |
| Aircraft | A320/M-SDE3FGHIRWY/LB1 |
Departure
| Time | N/A |
|---|---|
| Airport | Zürich Airport (LSZH) |
Arrival
| Time | 2026-05-05 15:54 |
|---|---|
| Airport | Alicante-Elche Miguel Hernández Airport (LEAL) |
| Time | Latitude | Longitude | Altitude | Speed | Heading |
|---|---|---|---|---|---|
| 2026-05-05 14:15 | 45.13794 | 5.64141 | 34907 ft | 393 kts | 201° |
| 2026-05-05 14:15 | 45.11183 | 5.63018 | 34908 ft | 393 kts | 201° |
| 2026-05-05 14:16 | 45.05946 | 5.60766 | 34910 ft | 392 kts | 201° |
| 2026-05-05 14:16 | 45.00720 | 5.58520 | 34912 ft | 392 kts | 201° |
| 2026-05-05 14:17 | 44.95511 | 5.56284 | 34913 ft | 390 kts | 201° |
| 2026-05-05 14:17 | 44.90322 | 5.54062 | 34914 ft | 389 kts | 201° |
| 2026-05-05 14:18 | 44.85142 | 5.51850 | 34890 ft | 388 kts | 202° |
| 2026-05-05 14:18 | 44.79978 | 5.49651 | 34901 ft | 388 kts | 202° |
| 2026-05-05 14:19 | 44.74847 | 5.47469 | 34900 ft | 387 kts | 201° |
| 2026-05-05 14:19 | 44.69688 | 5.45279 | 34912 ft | 387 kts | 202° |
| 2026-05-05 14:20 | 44.64527 | 5.43091 | 34915 ft | 387 kts | 202° |
| 2026-05-05 14:20 | 44.59368 | 5.40908 | 34913 ft | 387 kts | 202° |
| 2026-05-05 14:21 | 44.54206 | 5.38728 | 34916 ft | 387 kts | 202° |
| 2026-05-05 14:21 | 44.49042 | 5.36554 | 34920 ft | 388 kts | 201° |
| 2026-05-05 14:22 | 44.43865 | 5.34377 | 34909 ft | 387 kts | 202° |
| 2026-05-05 14:22 | 44.38696 | 5.32202 | 34945 ft | 388 kts | 201° |
| 2026-05-05 14:23 | 44.33521 | 5.30044 | 34941 ft | 388 kts | 201° |
| 2026-05-05 14:23 | 44.28387 | 5.27897 | 34922 ft | 387 kts | 201° |
| 2026-05-05 14:24 | 44.23226 | 5.25742 | 34919 ft | 387 kts | 201° |
| 2026-05-05 14:24 | 44.18076 | 5.23603 | 34913 ft | 386 kts | 201° |
| 2026-05-05 14:25 | 44.12918 | 5.21454 | 34916 ft | 387 kts | 201° |
| 2026-05-05 14:25 | 44.07760 | 5.19317 | 34890 ft | 386 kts | 201° |
| 2026-05-05 14:26 | 44.03479 | 5.17548 | 34904 ft | 386 kts | 201° |
| 2026-05-05 14:26 | 43.98331 | 5.15416 | 34908 ft | 386 kts | 201° |
| 2026-05-05 14:27 | 43.93178 | 5.13279 | 34911 ft | 387 kts | 201° |
| 2026-05-05 14:27 | 43.88020 | 5.11157 | 34901 ft | 386 kts | 201° |
| 2026-05-05 14:28 | 43.82860 | 5.09035 | 34908 ft | 386 kts | 201° |
| 2026-05-05 14:28 | 43.77710 | 5.06919 | 34910 ft | 386 kts | 201° |
| 2026-05-05 14:29 | 43.72561 | 5.04805 | 34911 ft | 386 kts | 201° |
| 2026-05-05 14:29 | 43.67405 | 5.02692 | 34903 ft | 386 kts | 201° |
| 2026-05-05 14:30 | 43.62255 | 5.00590 | 34909 ft | 385 kts | 201° |
| 2026-05-05 14:30 | 43.57143 | 4.98513 | 34919 ft | 385 kts | 201° |
| 2026-05-05 14:31 | 43.52007 | 4.96419 | 34908 ft | 385 kts | 201° |
| 2026-05-05 14:31 | 43.46871 | 4.94328 | 34938 ft | 384 kts | 201° |
| 2026-05-05 14:32 | 43.41741 | 4.92238 | 34941 ft | 384 kts | 201° |
| 2026-05-05 14:32 | 43.36607 | 4.90166 | 34937 ft | 384 kts | 201° |
| 2026-05-05 14:33 | 43.31482 | 4.88100 | 34917 ft | 384 kts | 201° |
| 2026-05-05 14:33 | 43.26365 | 4.86033 | 34929 ft | 383 kts | 201° |
| 2026-05-05 14:34 | 43.21248 | 4.83971 | 34933 ft | 383 kts | 201° |
| 2026-05-05 14:34 | 43.16166 | 4.81932 | 34936 ft | 382 kts | 201° |
| 2026-05-05 14:35 | 43.11059 | 4.79881 | 34923 ft | 382 kts | 202° |
| 2026-05-05 14:35 | 43.05983 | 4.77768 | 34934 ft | 378 kts | 207° |
| 2026-05-05 14:36 | 43.01373 | 4.74465 | 34937 ft | 373 kts | 213° |
| 2026-05-05 14:36 | 42.96843 | 4.71020 | 34931 ft | 373 kts | 213° |
| 2026-05-05 14:37 | 42.92336 | 4.67615 | 34922 ft | 372 kts | 212° |
| 2026-05-05 14:37 | 42.87802 | 4.64203 | 34927 ft | 372 kts | 213° |
| 2026-05-05 14:38 | 42.83278 | 4.60786 | 34932 ft | 371 kts | 213° |
| 2026-05-05 14:38 | 42.78766 | 4.57385 | 34958 ft | 371 kts | 213° |
| 2026-05-05 14:39 | 42.74252 | 4.53982 | 34952 ft | 371 kts | 212° |
| 2026-05-05 14:39 | 42.69732 | 4.50584 | 34940 ft | 371 kts | 212° |
| 2026-05-05 14:40 | 42.65211 | 4.47196 | 34935 ft | 371 kts | 212° |
| 2026-05-05 14:40 | 42.60689 | 4.43815 | 34924 ft | 371 kts | 212° |
| 2026-05-05 14:41 | 42.56197 | 4.40455 | 34920 ft | 371 kts | 212° |
| 2026-05-05 14:41 | 42.51674 | 4.37086 | 34892 ft | 371 kts | 213° |
| 2026-05-05 14:42 | 42.47150 | 4.33719 | 34917 ft | 370 kts | 213° |
| 2026-05-05 14:42 | 42.42637 | 4.30364 | 34925 ft | 370 kts | 213° |
| 2026-05-05 14:43 | 42.38135 | 4.27017 | 34931 ft | 369 kts | 212° |
| 2026-05-05 14:43 | 42.33626 | 4.23679 | 34928 ft | 369 kts | 212° |
| 2026-05-05 14:44 | 42.29129 | 4.20347 | 34896 ft | 368 kts | 213° |
| 2026-05-05 14:44 | 42.24638 | 4.17020 | 34920 ft | 368 kts | 213° |
| 2026-05-05 14:45 | 42.20143 | 4.13703 | 34918 ft | 368 kts | 213° |
| 2026-05-05 14:45 | 42.15666 | 4.10410 | 34913 ft | 368 kts | 212° |
| 2026-05-05 14:46 | 42.11166 | 4.07103 | 34878 ft | 368 kts | 213° |
| 2026-05-05 14:46 | 42.06666 | 4.03798 | 34887 ft | 369 kts | 212° |
| 2026-05-05 14:47 | 42.02164 | 4.00498 | 34897 ft | 369 kts | 212° |
| 2026-05-05 14:47 | 41.97651 | 3.97205 | 34903 ft | 369 kts | 212° |
| 2026-05-05 14:48 | 41.93140 | 3.93916 | 34904 ft | 369 kts | 212° |
| 2026-05-05 14:48 | 41.88584 | 3.90713 | 34871 ft | 370 kts | 211° |
| 2026-05-05 14:49 | 41.83961 | 3.87642 | 34882 ft | 371 kts | 211° |
| 2026-05-05 14:49 | 41.79323 | 3.84575 | 34891 ft | 371 kts | 211° |
| 2026-05-05 14:50 | 41.74728 | 3.81500 | 34899 ft | 371 kts | 211° |
| 2026-05-05 14:50 | 41.70095 | 3.78385 | 34909 ft | 372 kts | 211° |
| 2026-05-05 14:51 | 41.65470 | 3.75296 | 34912 ft | 372 kts | 211° |
| 2026-05-05 14:51 | 41.60833 | 3.72205 | 34914 ft | 372 kts | 211° |
| 2026-05-05 14:52 | 41.56202 | 3.69131 | 34914 ft | 372 kts | 211° |
| 2026-05-05 14:52 | 41.51570 | 3.66052 | 34968 ft | 373 kts | 211° |
| 2026-05-05 14:53 | 41.49243 | 3.64502 | 35109 ft | 374 kts | 211° |
| 2026-05-05 14:53 | 41.46910 | 3.62951 | 35279 ft | 375 kts | 211° |
| 2026-05-05 14:53 | 41.44578 | 3.61401 | 35432 ft | 376 kts | 211° |
| 2026-05-05 14:53 | 41.42229 | 3.59841 | 35590 ft | 376 kts | 211° |
| 2026-05-05 14:54 | 41.39885 | 3.58286 | 35734 ft | 377 kts | 211° |
| 2026-05-05 14:54 | 41.37534 | 3.56727 | 35879 ft | 378 kts | 211° |
| 2026-05-05 14:54 | 41.35175 | 3.55166 | 36030 ft | 378 kts | 211° |
| 2026-05-05 14:54 | 41.32815 | 3.53610 | 36164 ft | 379 kts | 211° |
| 2026-05-05 14:55 | 41.30451 | 3.52054 | 36311 ft | 380 kts | 211° |
| 2026-05-05 14:55 | 41.28083 | 3.50495 | 36418 ft | 380 kts | 211° |
| 2026-05-05 14:55 | 41.25709 | 3.48932 | 36561 ft | 381 kts | 211° |
| 2026-05-05 14:55 | 41.23340 | 3.47371 | 36694 ft | 381 kts | 211° |
| 2026-05-05 14:56 | 41.20966 | 3.45807 | 36849 ft | 381 kts | 211° |
| 2026-05-05 14:56 | 41.18581 | 3.44240 | 36907 ft | 383 kts | 210° |
| 2026-05-05 14:56 | 41.13669 | 3.41456 | 36907 ft | 386 kts | 206° |
| 2026-05-05 14:57 | 41.08659 | 3.38980 | 36909 ft | 386 kts | 206° |
| 2026-05-05 14:57 | 41.03620 | 3.36484 | 36908 ft | 385 kts | 206° |
| 2026-05-05 14:58 | 40.98619 | 3.33926 | 36905 ft | 385 kts | 207° |
| 2026-05-05 14:58 | 40.93625 | 3.31335 | 36905 ft | 385 kts | 207° |
| 2026-05-05 14:59 | 40.88635 | 3.28761 | 36907 ft | 385 kts | 207° |
| 2026-05-05 14:59 | 40.83636 | 3.26193 | 36891 ft | 385 kts | 206° |
| 2026-05-05 15:00 | 40.80102 | 3.24381 | 36898 ft | 385 kts | 206° |
| 2026-05-05 15:00 | 40.74269 | 3.21397 | 36910 ft | 385 kts | 206° |
| 2026-05-05 15:01 | 40.69302 | 3.18855 | 36915 ft | 385 kts | 206° |
| 2026-05-05 15:01 | 40.64295 | 3.16313 | 36917 ft | 385 kts | 206° |
| 2026-05-05 15:02 | 40.59404 | 3.13517 | 36917 ft | 380 kts | 213° |
| 2026-05-05 15:02 | 40.54769 | 3.10153 | 36918 ft | 381 kts | 213° |
| 2026-05-05 15:03 | 40.50117 | 3.06810 | 36921 ft | 381 kts | 213° |
| 2026-05-05 15:03 | 40.45453 | 3.03483 | 36935 ft | 381 kts | 213° |
| 2026-05-05 15:04 | 40.40791 | 3.00153 | 36910 ft | 381 kts | 213° |
| 2026-05-05 15:04 | 40.36160 | 2.96835 | 36914 ft | 381 kts | 213° |
| 2026-05-05 15:05 | 40.29159 | 2.91830 | 36920 ft | 381 kts | 213° |
| 2026-05-05 15:06 | 40.24499 | 2.88519 | 36921 ft | 381 kts | 213° |
| 2026-05-05 15:06 | 40.20631 | 2.85775 | 36877 ft | 381 kts | 213° |
| 2026-05-05 15:07 | 40.15187 | 2.81889 | 36893 ft | 381 kts | 213° |
| 2026-05-05 15:07 | 40.10526 | 2.78585 | 36905 ft | 381 kts | 213° |
| 2026-05-05 15:08 | 40.05892 | 2.75313 | 36908 ft | 381 kts | 213° |
| 2026-05-05 15:08 | 40.01231 | 2.72021 | 36908 ft | 381 kts | 213° |
| 2026-05-05 15:09 | 39.96568 | 2.68731 | 36884 ft | 381 kts | 213° |
| 2026-05-05 15:09 | 39.91900 | 2.65451 | 36921 ft | 381 kts | 213° |
| 2026-05-05 15:10 | 39.87230 | 2.62165 | 36920 ft | 381 kts | 213° |
| 2026-05-05 15:10 | 39.82559 | 2.58885 | 36919 ft | 381 kts | 213° |
| 2026-05-05 15:11 | 39.77889 | 2.55612 | 36924 ft | 382 kts | 213° |
| 2026-05-05 15:11 | 39.73207 | 2.52337 | 36887 ft | 382 kts | 213° |
| 2026-05-05 15:12 | 39.68525 | 2.49065 | 36893 ft | 382 kts | 213° |
| 2026-05-05 15:12 | 39.63838 | 2.45797 | 36899 ft | 382 kts | 213° |
| 2026-05-05 15:13 | 39.59151 | 2.42519 | 36902 ft | 383 kts | 213° |
| 2026-05-05 15:13 | 39.54926 | 2.38568 | 36883 ft | 375 kts | 229° |
| 2026-05-05 15:14 | 39.52416 | 2.33964 | 36891 ft | 374 kts | 240° |
| 2026-05-05 15:14 | 39.49808 | 2.28141 | 36913 ft | 374 kts | 240° |
| 2026-05-05 15:15 | 39.47183 | 2.22318 | 36911 ft | 374 kts | 240° |
| 2026-05-05 15:15 | 39.44570 | 2.16532 | 36914 ft | 374 kts | 240° |
| 2026-05-05 15:16 | 39.41936 | 2.10710 | 36912 ft | 374 kts | 240° |
| 2026-05-05 15:16 | 39.39329 | 2.04961 | 36912 ft | 374 kts | 240° |
| 2026-05-05 15:17 | 39.36693 | 1.99147 | 36912 ft | 374 kts | 240° |
| 2026-05-05 15:17 | 39.34057 | 1.93338 | 36909 ft | 374 kts | 240° |
| 2026-05-05 15:18 | 39.31419 | 1.87536 | 36910 ft | 374 kts | 240° |
| 2026-05-05 15:18 | 39.28774 | 1.81746 | 36908 ft | 374 kts | 240° |
| 2026-05-05 15:19 | 39.26132 | 1.75962 | 36904 ft | 374 kts | 240° |
| 2026-05-05 15:19 | 39.23509 | 1.70230 | 36903 ft | 374 kts | 240° |
| 2026-05-05 15:20 | 39.20869 | 1.64467 | 36897 ft | 374 kts | 240° |
| 2026-05-05 15:20 | 39.18214 | 1.58690 | 36898 ft | 374 kts | 240° |
| 2026-05-05 15:21 | 39.15559 | 1.52935 | 36903 ft | 374 kts | 240° |
| 2026-05-05 15:21 | 39.12904 | 1.47181 | 36924 ft | 373 kts | 240° |
| 2026-05-05 15:22 | 39.10650 | 1.41167 | 36897 ft | 373 kts | 248° |
| 2026-05-05 15:22 | 39.08778 | 1.34975 | 36902 ft | 373 kts | 248° |
| 2026-05-05 15:23 | 39.06878 | 1.28765 | 36748 ft | 372 kts | 248° |
| 2026-05-05 15:23 | 39.05927 | 1.25664 | 36059 ft | 372 kts | 248° |
| 2026-05-05 15:23 | 39.04977 | 1.22564 | 35318 ft | 373 kts | 247° |
| 2026-05-05 15:23 | 39.04023 | 1.19450 | 34590 ft | 374 kts | 247° |
| 2026-05-05 15:24 | 39.03069 | 1.16331 | 33871 ft | 375 kts | 247° |
| 2026-05-05 15:24 | 39.02116 | 1.13210 | 33132 ft | 374 kts | 247° |
| 2026-05-05 15:24 | 39.01167 | 1.10115 | 32556 ft | 370 kts | 247° |
| 2026-05-05 15:24 | 39.00227 | 1.07055 | 31979 ft | 366 kts | 247° |
| 2026-05-05 15:25 | 38.99291 | 1.04021 | 31410 ft | 363 kts | 247° |
| 2026-05-05 15:25 | 38.98363 | 1.01016 | 30857 ft | 360 kts | 247° |
| 2026-05-05 15:25 | 38.97442 | 0.98043 | 30317 ft | 357 kts | 247° |
| 2026-05-05 15:25 | 38.96537 | 0.95125 | 29775 ft | 354 kts | 247° |
| 2026-05-05 15:26 | 38.95632 | 0.92195 | 29171 ft | 351 kts | 247° |
| 2026-05-05 15:26 | 38.94735 | 0.89277 | 28584 ft | 348 kts | 247° |
| 2026-05-05 15:26 | 38.93848 | 0.86393 | 28016 ft | 345 kts | 247° |
| 2026-05-05 15:26 | 38.92962 | 0.83529 | 27458 ft | 343 kts | 247° |
| 2026-05-05 15:27 | 38.92092 | 0.80738 | 26930 ft | 340 kts | 248° |
| 2026-05-05 15:27 | 38.91214 | 0.77925 | 26403 ft | 338 kts | 248° |
| 2026-05-05 15:27 | 38.90345 | 0.75135 | 25902 ft | 335 kts | 248° |
| 2026-05-05 15:27 | 38.89483 | 0.72358 | 25427 ft | 333 kts | 249° |
| 2026-05-05 15:28 | 38.88629 | 0.69607 | 24910 ft | 330 kts | 249° |
| 2026-05-05 15:28 | 38.87779 | 0.66868 | 24383 ft | 330 kts | 249° |
| 2026-05-05 15:28 | 38.86927 | 0.64127 | 23890 ft | 329 kts | 249° |
| 2026-05-05 15:28 | 38.86078 | 0.61403 | 23414 ft | 328 kts | 249° |
| 2026-05-05 15:29 | 38.85234 | 0.58698 | 22863 ft | 326 kts | 249° |
| 2026-05-05 15:29 | 38.84393 | 0.56012 | 22363 ft | 324 kts | 249° |
| 2026-05-05 15:29 | 38.83558 | 0.53351 | 21873 ft | 321 kts | 249° |
| 2026-05-05 15:29 | 38.82724 | 0.50694 | 21388 ft | 319 kts | 249° |
| 2026-05-05 15:30 | 38.81929 | 0.48046 | 20913 ft | 317 kts | 253° |
| 2026-05-05 15:30 | 38.81360 | 0.45363 | 20444 ft | 315 kts | 255° |
| 2026-05-05 15:30 | 38.80795 | 0.42650 | 19981 ft | 313 kts | 254° |
| 2026-05-05 15:30 | 38.80233 | 0.39965 | 19528 ft | 312 kts | 254° |
| 2026-05-05 15:31 | 38.79672 | 0.37290 | 19093 ft | 310 kts | 254° |
| 2026-05-05 15:31 | 38.79110 | 0.34624 | 18637 ft | 309 kts | 253° |
| 2026-05-05 15:31 | 38.78541 | 0.31931 | 18191 ft | 308 kts | 253° |
| 2026-05-05 15:31 | 38.77981 | 0.29285 | 17711 ft | 307 kts | 253° |
| 2026-05-05 15:32 | 38.77432 | 0.26688 | 17238 ft | 305 kts | 253° |
| 2026-05-05 15:32 | 38.76879 | 0.24074 | 16792 ft | 304 kts | 253° |
| 2026-05-05 15:32 | 38.76328 | 0.21466 | 16355 ft | 302 kts | 253° |
| 2026-05-05 15:32 | 38.75780 | 0.18873 | 15986 ft | 301 kts | 254° |
| 2026-05-05 15:33 | 38.75231 | 0.16284 | 15737 ft | 302 kts | 254° |
| 2026-05-05 15:33 | 38.74677 | 0.13689 | 15485 ft | 301 kts | 254° |
| 2026-05-05 15:33 | 38.74124 | 0.11102 | 15240 ft | 300 kts | 254° |
| 2026-05-05 15:33 | 38.73575 | 0.08527 | 14997 ft | 299 kts | 254° |
| 2026-05-05 15:34 | 38.73028 | 0.05955 | 14756 ft | 299 kts | 254° |
| 2026-05-05 15:34 | 38.72485 | 0.03398 | 14513 ft | 298 kts | 254° |
| 2026-05-05 15:34 | 38.71941 | 0.00840 | 14274 ft | 297 kts | 254° |
| 2026-05-05 15:34 | 38.71398 | -0.01705 | 14071 ft | 295 kts | 255° |
| 2026-05-05 15:35 | 38.70857 | -0.04225 | 13837 ft | 293 kts | 255° |
| 2026-05-05 15:35 | 38.70369 | -0.06490 | 13620 ft | 292 kts | 255° |
| 2026-05-05 15:35 | 38.69831 | -0.09001 | 13359 ft | 290 kts | 255° |
| 2026-05-05 15:35 | 38.69299 | -0.11482 | 13096 ft | 289 kts | 255° |
| 2026-05-05 15:36 | 38.68773 | -0.13923 | 12840 ft | 287 kts | 255° |
| 2026-05-05 15:36 | 38.68242 | -0.16383 | 12585 ft | 288 kts | 256° |
| 2026-05-05 15:36 | 38.67701 | -0.18895 | 12325 ft | 290 kts | 255° |
| 2026-05-05 15:36 | 38.67176 | -0.21324 | 12074 ft | 285 kts | 256° |
| 2026-05-05 15:37 | 38.66652 | -0.23743 | 11768 ft | 278 kts | 255° |
| 2026-05-05 15:37 | 38.66140 | -0.26106 | 11514 ft | 273 kts | 255° |
| 2026-05-05 15:37 | 38.65637 | -0.28428 | 11267 ft | 268 kts | 256° |
| 2026-05-05 15:37 | 38.65140 | -0.30722 | 11009 ft | 267 kts | 255° |
| 2026-05-05 15:38 | 38.64643 | -0.33013 | 10760 ft | 267 kts | 255° |
| 2026-05-05 15:38 | 38.64144 | -0.35308 | 10511 ft | 268 kts | 256° |
| 2026-05-05 15:38 | 38.63644 | -0.37610 | 10268 ft | 268 kts | 255° |
| 2026-05-05 15:38 | 38.63146 | -0.39907 | 10033 ft | 269 kts | 256° |
| 2026-05-05 15:39 | 38.62655 | -0.42180 | 9822 ft | 268 kts | 256° |
| 2026-05-05 15:39 | 38.62154 | -0.44486 | 9698 ft | 268 kts | 256° |
| 2026-05-05 15:39 | 38.61661 | -0.46743 | 9565 ft | 258 kts | 256° |
| 2026-05-05 15:39 | 38.61186 | -0.48903 | 9433 ft | 248 kts | 256° |
| 2026-05-05 15:40 | 38.60729 | -0.50984 | 9294 ft | 238 kts | 256° |
| 2026-05-05 15:40 | 38.60284 | -0.53011 | 9027 ft | 234 kts | 256° |
| 2026-05-05 15:40 | 38.59847 | -0.55005 | 8854 ft | 233 kts | 256° |
| 2026-05-05 15:40 | 38.59407 | -0.56999 | 8711 ft | 233 kts | 256° |
| 2026-05-05 15:41 | 38.58969 | -0.58993 | 8558 ft | 233 kts | 256° |
| 2026-05-05 15:41 | 38.58533 | -0.60985 | 8404 ft | 232 kts | 256° |
| 2026-05-05 15:41 | 38.58097 | -0.62972 | 8250 ft | 232 kts | 256° |
| 2026-05-05 15:41 | 38.57666 | -0.64934 | 8101 ft | 232 kts | 256° |
| 2026-05-05 15:42 | 38.57231 | -0.66923 | 7953 ft | 232 kts | 256° |
| 2026-05-05 15:42 | 38.56795 | -0.68907 | 7799 ft | 232 kts | 256° |
| 2026-05-05 15:42 | 38.56352 | -0.70911 | 7655 ft | 231 kts | 256° |
| 2026-05-05 15:42 | 38.55914 | -0.72885 | 7509 ft | 231 kts | 256° |
| 2026-05-05 15:43 | 38.55475 | -0.74868 | 7375 ft | 232 kts | 256° |
| 2026-05-05 15:43 | 38.55044 | -0.76814 | 7260 ft | 231 kts | 255° |
| 2026-05-05 15:43 | 38.54606 | -0.78791 | 7134 ft | 232 kts | 255° |
| 2026-05-05 15:43 | 38.54112 | -0.80749 | 7009 ft | 231 kts | 248° |
| 2026-05-05 15:44 | 38.53361 | -0.82565 | 6892 ft | 232 kts | 238° |
| 2026-05-05 15:44 | 38.52372 | -0.84207 | 6767 ft | 234 kts | 232° |
| 2026-05-05 15:44 | 38.51294 | -0.85767 | 6657 ft | 233 kts | 229° |
| 2026-05-05 15:44 | 38.50159 | -0.87255 | 6564 ft | 235 kts | 226° |
| 2026-05-05 15:45 | 38.48970 | -0.88672 | 6468 ft | 234 kts | 224° |
| 2026-05-05 15:45 | 38.47731 | -0.90012 | 6371 ft | 234 kts | 221° |
| 2026-05-05 15:45 | 38.46438 | -0.91274 | 6276 ft | 234 kts | 219° |
| 2026-05-05 15:45 | 38.45097 | -0.92449 | 6163 ft | 233 kts | 216° |
| 2026-05-05 15:46 | 38.43715 | -0.93540 | 5896 ft | 233 kts | 213° |
| 2026-05-05 15:46 | 38.42304 | -0.94545 | 5649 ft | 232 kts | 210° |
| 2026-05-05 15:46 | 38.40845 | -0.95466 | 5476 ft | 233 kts | 207° |
| 2026-05-05 15:46 | 38.39359 | -0.96285 | 5341 ft | 232 kts | 204° |
| 2026-05-05 15:47 | 38.37854 | -0.97017 | 5218 ft | 232 kts | 202° |
| 2026-05-05 15:47 | 38.36821 | -0.97380 | 5129 ft | 233 kts | 187° |
| 2026-05-05 15:47 | 38.34736 | -0.96712 | 4998 ft | 240 kts | 146° |
| 2026-05-05 15:47 | 38.33687 | -0.95072 | 4887 ft | 244 kts | 112° |
| 2026-05-05 15:48 | 38.33298 | -0.92966 | 4764 ft | 244 kts | 101° |
| 2026-05-05 15:48 | 38.33034 | -0.90853 | 4622 ft | 243 kts | 101° |
| 2026-05-05 15:48 | 38.32760 | -0.88768 | 4486 ft | 236 kts | 102° |
| 2026-05-05 15:48 | 38.32488 | -0.86768 | 4295 ft | 229 kts | 103° |
| 2026-05-05 15:49 | 38.32215 | -0.84776 | 4071 ft | 226 kts | 103° |
| 2026-05-05 15:49 | 38.31950 | -0.82835 | 3885 ft | 216 kts | 102° |
| 2026-05-05 15:49 | 38.31703 | -0.81028 | 3769 ft | 203 kts | 103° |
| 2026-05-05 15:49 | 38.31461 | -0.79271 | 3509 ft | 199 kts | 103° |
| 2026-05-05 15:50 | 38.31226 | -0.77562 | 3263 ft | 195 kts | 104° |
| 2026-05-05 15:50 | 38.30996 | -0.75884 | 2997 ft | 187 kts | 104° |
| 2026-05-05 15:50 | 38.30780 | -0.74308 | 2760 ft | 175 kts | 104° |
| 2026-05-05 15:50 | 38.30574 | -0.72811 | 2530 ft | 170 kts | 103° |
| 2026-05-05 15:51 | 38.30370 | -0.71338 | 2317 ft | 167 kts | 104° |
| 2026-05-05 15:51 | 38.30169 | -0.69889 | 2089 ft | 165 kts | 104° |
| 2026-05-05 15:51 | 38.29971 | -0.68454 | 1878 ft | 164 kts | 103° |
| 2026-05-05 15:51 | 38.29781 | -0.67073 | 1683 ft | 152 kts | 104° |
| 2026-05-05 15:52 | 38.29603 | -0.65787 | 1465 ft | 145 kts | 104° |
| 2026-05-05 15:52 | 38.29430 | -0.64538 | 1281 ft | 141 kts | 105° |
| 2026-05-05 15:52 | 38.29264 | -0.63339 | 1097 ft | 139 kts | 105° |
| 2026-05-05 15:52 | 38.29095 | -0.62126 | 870 ft | 139 kts | 104° |
| 2026-05-05 15:53 | 38.28926 | -0.60913 | 699 ft | 139 kts | 105° |
| 2026-05-05 15:53 | 38.28753 | -0.59690 | 514 ft | 141 kts | 104° |
| 2026-05-05 15:53 | 38.28583 | -0.58456 | 320 ft | 141 kts | 104° |
| 2026-05-05 15:53 | 38.28415 | -0.57221 | 160 ft | 141 kts | 105° |
| 2026-05-05 15:54 | 38.28264 | -0.56165 | 113 ft | 85 kts | 99° |
| 2026-05-05 15:54 | 38.28208 | -0.55748 | 99 ft | 31 kts | 96° |
| 2026-05-05 15:54 | 38.28245 | -0.55542 | 92 ft | 16 kts | 71° |
| 2026-05-05 15:54 | 38.28276 | -0.55436 | 89 ft | 11 kts | 70° |
| 2026-05-05 15:55 | 38.28303 | -0.55339 | 90 ft | 12 kts | 71° |
| 2026-05-05 15:55 | 38.28341 | -0.55241 | 87 ft | 11 kts | 56° |
| 2026-05-05 15:55 | 38.28382 | -0.55169 | 89 ft | 8 kts | 54° |
| 2026-05-05 15:55 | 38.28407 | -0.55122 | 92 ft | 7 kts | 57° |
| 2026-05-05 15:56 | 38.28424 | -0.55058 | 90 ft | 9 kts | 91° |
| 2026-05-05 15:56 | 38.28453 | -0.54983 | 87 ft | 11 kts | 12° |
| 2026-05-05 15:56 | 38.28522 | -0.54968 | 88 ft | 9 kts | 10° |
| 2026-05-05 15:56 | 38.28589 | -0.54952 | 87 ft | 9 kts | 10° |
| 2026-05-05 15:57 | 38.28648 | -0.54939 | 90 ft | 8 kts | 10° |
| 2026-05-05 15:57 | 38.28680 | -0.54959 | 89 ft | 2 kts | 293° |
| 2026-05-05 15:57 | 38.28685 | -0.54988 | 93 ft | 2 kts | 279° |
| 2026-05-05 15:57 | 38.28689 | -0.55017 | 95 ft | 2 kts | 280° |
| 2026-05-05 15:58 | 38.28690 | -0.55027 | 94 ft | 0 kts | 279° |